This is the latest recevied weather packets stored in our database for station/object VA7SHG-1. If no packets are shown the sender has not sent any weather packets the latest 10 day(s).
| Time | Temp. | Humidity | Pressure | Rain* | Wind** | Luminosity | Snow |
|---|---|---|---|---|---|---|---|
| 1777248317 | 22.22° C | 21% | 1008.8 hPa | 0 mm | - | 394 W/m² | - |
| 1777245316 | 21.67° C | 19% | 1008.9 hPa | 0 mm | - | 595 W/m² | - |
| 1777242918 | 21.67° C | 20% | 1009.1 hPa | 0 mm | - | 763 W/m² | - |
| 1777240517 | 20° C | 21% | 1009.2 hPa | 0 mm | - | 715 W/m² | - |
| 1777239917 | 21.11° C | 21% | 1009.2 hPa | 0 mm | - | 207 W/m² | - |
| 1777239316 | 20.56° C | 21% | 1009.3 hPa | 0 mm | - | 720 W/m² | - |
| 1777232117 | 18.33° C | 30% | 1009.9 hPa | 0 mm | - | 943 W/m² | - |
| 1777230315 | 17.22° C | 32% | 1010 hPa | 0 mm | - | 912 W/m² | - |
| 1777229737 | 17.78° C | 33% | 1010.1 hPa | 0 mm | - | 901 W/m² | - |
| 1777228516 | 17.22° C | 30% | 1010.1 hPa | 0 mm | - | 885 W/m² | - |
| 1777227317 | 16.11° C | 36% | 1010.2 hPa | 0 mm | - | 853 W/m² | - |
| 1777223737 | 14.44° C | 38% | 1010.3 hPa | 0 mm | - | 631 W/m² | - |
| 1777221915 | 13.33° C | 42% | 1010.5 hPa | 0 mm | - | 559 W/m² | - |
| 1777220736 | 12.22° C | 45% | 1010.6 hPa | 0 mm | - | 447 W/m² | - |
| 1777218948 | 11.67° C | 48% | 1010.6 hPa | 0 mm | - | 437 W/m² | - |
| 1777215919 | 10° C | 51% | 1010.8 hPa | 0 mm | - | 248 W/m² | - |
| 1777213519 | 8.89° C | 53% | 1010.7 hPa | 0 mm | - | 123 W/m² | - |
| 1777206947 | 4.44° C | 76% | 1010.1 hPa | 0 mm | - | 0 W/m² | - |
| 1777201519 | 6.11° C | 68% | 1010.2 hPa | 0 mm | - | 0 W/m² | - |
| 1777199119 | 7.22° C | 64% | 1010.2 hPa | 0 mm | - | 0 W/m² | - |
| 1777198527 | 7.22° C | 65% | 1010.2 hPa | 0 mm | - | 0 W/m² | - |
| 1777192527 | 8.89° C | 59% | 1010.5 hPa | 0 mm | - | 0 W/m² | - |
| 1777191328 | 8.33° C | 61% | 1010.5 hPa | 0 mm | - | 0 W/m² | - |
| 1777189539 | 9.44° C | 57% | 1010.2 hPa | 0 mm | - | 0 W/m² | - |
| 1777188336 | 10° C | 55% | 1010.2 hPa | 0 mm | - | 0 W/m² | - |
* Rain latest hour (hover to see other rain measurements)
** Current wind speed in m/s (hover to see current wind gust speed)